createdAt,value
2023-02-06T00:01:05.136Z,-5.28
2023-02-06T00:04:29.473Z,-5.26
2023-02-06T00:08:27.238Z,-5.30
2023-02-06T00:12:10.726Z,-5.38
2023-02-06T00:15:35.638Z,-5.45
2023-02-06T00:19:31.837Z,-5.53
2023-02-06T00:23:14.656Z,-5.58
2023-02-06T00:26:38.637Z,-5.54
2023-02-06T00:30:17.523Z,-5.51
2023-02-06T00:33:54.190Z,-5.51
2023-02-06T00:37:31.812Z,-5.50
2023-02-06T00:41:09.753Z,-5.46
2023-02-06T00:45:07.375Z,-5.49
2023-02-06T00:48:50.904Z,-5.56
2023-02-06T00:52:15.045Z,-5.54
2023-02-06T00:56:16.142Z,-5.51
2023-02-06T00:59:58.962Z,-5.47
2023-02-06T01:03:24.345Z,-5.44
2023-02-06T01:07:22.119Z,-5.44
2023-02-06T01:11:13.707Z,-5.44
2023-02-06T01:14:39.382Z,-5.39
2023-02-06T01:18:15.570Z,-5.32
2023-02-06T01:21:53.687Z,-5.20
2023-02-06T01:25:49.767Z,-5.12
2023-02-06T01:29:32.729Z,-5.21
2023-02-06T01:33:16.173Z,-5.28
2023-02-06T01:37:01.822Z,-5.35
2023-02-06T01:40:28.154Z,-5.32
2023-02-06T01:44:17.379Z,-5.29
2023-02-06T01:47:44.536Z,-5.26
2023-02-06T01:51:41.422Z,-5.28
2023-02-06T01:55:06.761Z,-5.32
2023-02-06T01:58:46.884Z,-5.27
2023-02-06T02:02:24.643Z,-5.20
2023-02-06T02:06:05.929Z,-5.27
2023-02-06T02:09:56.491Z,-5.36
2023-02-06T02:13:20.803Z,-5.50
2023-02-06T02:17:40.635Z,-5.55
2023-02-06T02:21:38.869Z,-5.46
2023-02-06T02:25:59.684Z,-5.38
2023-02-06T02:29:48.648Z,-5.34
2023-02-06T02:33:28.346Z,-5.39
2023-02-06T02:37:24.980Z,-5.43
2023-02-06T02:41:19.411Z,-5.46
2023-02-06T02:44:57.378Z,-5.62
2023-02-06T02:48:45.060Z,-5.82
2023-02-06T02:52:30.810Z,-6.04
2023-02-06T02:55:55.991Z,-6.18
2023-02-06T02:59:51.794Z,-6.33
2023-02-06T03:03:22.789Z,-6.45
2023-02-06T03:07:15.481Z,-6.50
2023-02-06T03:11:15.796Z,-6.49
2023-02-06T03:14:48.270Z,-6.61
2023-02-06T03:18:24.413Z,-6.89
2023-02-06T03:22:15.870Z,-7.14
2023-02-06T03:25:44.353Z,-7.39
2023-02-06T03:29:19.700Z,-7.64
2023-02-06T03:33:07.448Z,-7.80
2023-02-06T03:36:52.798Z,-7.95
2023-02-06T03:40:18.301Z,-8.08
2023-02-06T03:43:55.417Z,-8.12
2023-02-06T03:47:53.504Z,-8.18
2023-02-06T03:52:10.913Z,-8.25
2023-02-06T03:55:38.642Z,-8.34
2023-02-06T03:59:14.301Z,-8.38
2023-02-06T04:02:53.493Z,-8.49
2023-02-06T04:06:28.849Z,-8.64
2023-02-06T04:10:06.868Z,-8.76
2023-02-06T04:14:03.390Z,-8.83
2023-02-06T04:17:59.541Z,-8.85
2023-02-06T04:21:28.239Z,-8.83
2023-02-06T04:25:27.971Z,-8.85
2023-02-06T04:29:12.212Z,-8.85
2023-02-06T04:32:36.652Z,-9.00
2023-02-06T04:36:14.466Z,-9.05
2023-02-06T04:40:11.462Z,-9.11
2023-02-06T04:43:39.519Z,-9.09
2023-02-06T04:47:13.809Z,-8.93
2023-02-06T04:50:51.867Z,-8.93
2023-02-06T04:54:31.216Z,-8.91
2023-02-06T04:58:07.987Z,-8.90
2023-02-06T05:01:46.148Z,-8.81
2023-02-06T05:05:41.005Z,-8.76
2023-02-06T05:09:06.074Z,-8.73
2023-02-06T05:12:42.997Z,-8.76
2023-02-06T05:16:20.590Z,-8.70
2023-02-06T05:19:58.720Z,-8.70
2023-02-06T05:23:54.909Z,-8.68
2023-02-06T05:27:37.770Z,-8.63
2023-02-06T05:31:21.540Z,-8.56
2023-02-06T05:34:45.879Z,-8.51
2023-02-06T05:38:43.565Z,-8.48
2023-02-06T05:42:11.446Z,-8.47
2023-02-06T05:46:06.515Z,-8.40
2023-02-06T05:49:30.316Z,-8.37
2023-02-06T05:53:28.285Z,-8.39
2023-02-06T05:57:11.004Z,-8.44
2023-02-06T06:00:34.966Z,-8.58
2023-02-06T06:04:13.336Z,-8.74
2023-02-06T06:08:09.329Z,-8.89
2023-02-06T06:11:34.334Z,-8.87
2023-02-06T06:15:29.902Z,-8.72
2023-02-06T06:19:12.586Z,-8.54
2023-02-06T06:22:36.466Z,-8.35
2023-02-06T06:26:16.147Z,-8.21
2023-02-06T06:30:11.466Z,-8.11
2023-02-06T06:33:36.446Z,-8.09
2023-02-06T06:37:32.219Z,-8.09
2023-02-06T06:41:15.749Z,-8.09
2023-02-06T06:44:58.480Z,-8.09
2023-02-06T06:48:41.367Z,-8.03
2023-02-06T06:54:10.113Z,-7.83
2023-02-06T06:58:06.687Z,-7.74
2023-02-06T07:01:53.332Z,-7.68
2023-02-06T07:05:15.993Z,-7.62
2023-02-06T07:09:12.462Z,-7.55
2023-02-06T07:12:54.408Z,-7.45
2023-02-06T07:16:35.376Z,-7.33
2023-02-06T07:19:57.541Z,-7.16
2023-02-06T07:23:38.818Z,-7.02
2023-02-06T07:27:13.278Z,-6.87
2023-02-06T07:30:50.760Z,-6.79
2023-02-06T07:34:47.105Z,-6.73
2023-02-06T07:38:29.215Z,-6.65
2023-02-06T07:42:11.332Z,-6.58
2023-02-06T07:46:12.778Z,-6.53
2023-02-06T07:49:34.947Z,-6.52
2023-02-06T07:53:12.752Z,-6.51
2023-02-06T07:57:09.789Z,-6.48
2023-02-06T08:00:50.978Z,-6.34
2023-02-06T08:04:34.953Z,-6.22
2023-02-06T08:08:16.334Z,-6.19
2023-02-06T08:11:38.817Z,-6.13
2023-02-06T08:15:35.625Z,-6.13
2023-02-06T08:18:57.713Z,-6.14
2023-02-06T08:22:54.917Z,-6.09
2023-02-06T08:26:18.872Z,-6.05
2023-02-06T08:29:54.591Z,-6.01
2023-02-06T08:33:51.745Z,-5.91
2023-02-06T08:37:14.205Z,-5.82
2023-02-06T08:41:17.536Z,-5.73
2023-02-06T08:44:58.590Z,-5.66
2023-02-06T08:48:20.565Z,-5.58
2023-02-06T08:51:59.135Z,-5.53
2023-02-06T08:55:59.689Z,-5.49
2023-02-06T08:59:40.949Z,-5.46
2023-02-06T09:03:22.586Z,-5.37
2023-02-06T09:06:48.856Z,-5.24
2023-02-06T09:10:27.746Z,-5.16
2023-02-06T09:14:02.783Z,-5.08
2023-02-06T09:17:56.933Z,-4.96
2023-02-06T09:21:26.326Z,-4.87
2023-02-06T09:25:15.510Z,-4.79
2023-02-06T09:29:02.408Z,-4.72
2023-02-06T09:32:43.926Z,-4.62
2023-02-06T09:36:25.111Z,-4.51
2023-02-06T09:39:47.411Z,-4.40
2023-02-06T09:43:25.903Z,-4.35
2023-02-06T09:47:27.900Z,-4.29
2023-02-06T09:51:11.833Z,-4.23
2023-02-06T09:54:45.891Z,-4.20
2023-02-06T09:58:49.618Z,-4.11
2023-02-06T10:02:39.954Z,-3.89
2023-02-06T10:06:33.458Z,-3.74
2023-02-06T10:10:04.987Z,-3.61
2023-02-06T10:13:59.489Z,-3.50
2023-02-06T10:17:32.576Z,-3.43
2023-02-06T10:21:50.253Z,-3.36
2023-02-06T10:25:39.677Z,-3.32
2023-02-06T10:29:01.684Z,-3.29
2023-02-06T10:33:24.762Z,-3.30
2023-02-06T10:37:47.135Z,-3.31
2023-02-06T10:41:46.518Z,-3.28
2023-02-06T10:45:39.061Z,-3.29
2023-02-06T10:49:24.493Z,-3.18
2023-02-06T10:52:48.616Z,-3.14
2023-02-06T10:56:31.717Z,-3.01
2023-02-06T11:00:12.367Z,-2.93
2023-02-06T11:04:20.843Z,-2.93
2023-02-06T11:08:13.100Z,-2.78
2023-02-06T11:11:56.332Z,-2.63
2023-02-06T11:15:27.472Z,-2.50
2023-02-06T11:19:32.925Z,-2.27
2023-02-06T11:22:55.223Z,-2.09
2023-02-06T11:26:32.817Z,-2.08
2023-02-06T11:30:34.342Z,-1.99
2023-02-06T11:33:57.015Z,-1.88
2023-02-06T11:38:05.154Z,-1.83
2023-02-06T11:42:20.077Z,-1.75
2023-02-06T11:45:42.630Z,-1.73
2023-02-06T11:49:38.552Z,-1.55
2023-02-06T11:53:26.055Z,-1.27
2023-02-06T11:57:03.341Z,-1.29
2023-02-06T12:00:51.505Z,-1.35
2023-02-06T12:04:40.012Z,-1.18
2023-02-06T12:08:22.586Z,-0.83
2023-02-06T12:11:51.536Z,-0.64
2023-02-06T12:15:45.465Z,-0.55
2023-02-06T12:19:31.105Z,-0.42
2023-02-06T12:23:06.445Z,-0.12
2023-02-06T12:26:33.616Z,0.07
2023-02-06T12:30:35.528Z,0.17
2023-02-06T12:34:10.721Z,0.17
2023-02-06T12:38:00.500Z,0.13
2023-02-06T12:41:50.024Z,0.11
2023-02-06T12:45:45.497Z,0.11
2023-02-06T12:49:36.369Z,0.31
2023-02-06T12:53:28.775Z,0.48
2023-02-06T12:57:03.324Z,0.48
2023-02-06T13:01:12.063Z,0.24
2023-02-06T13:05:07.025Z,-0.23
2023-02-06T13:08:39.884Z,-0.04
2023-02-06T13:12:14.666Z,-0.11
2023-02-06T13:15:53.775Z,0.15
2023-02-06T13:19:37.113Z,0.02
2023-02-06T13:23:12.445Z,0.14
2023-02-06T13:26:51.601Z,0.46
2023-02-06T13:30:30.905Z,0.53
2023-02-06T13:33:58.258Z,0.50
2023-02-06T13:38:10.963Z,0.63
2023-02-06T13:41:52.905Z,0.58
2023-02-06T13:45:47.415Z,0.66
2023-02-06T13:49:35.286Z,0.42
2023-02-06T13:53:15.195Z,0.54
2023-02-06T13:56:59.856Z,0.49
2023-02-06T14:00:47.094Z,0.76
2023-02-06T14:04:15.346Z,0.86
2023-02-06T14:08:06.607Z,1.14
2023-02-06T14:12:34.931Z,1.37
2023-02-06T14:16:30.148Z,1.56
2023-02-06T14:20:30.405Z,1.59
2023-02-06T14:24:25.301Z,1.38
2023-02-06T14:28:29.260Z,1.39
2023-02-06T14:32:25.977Z,1.28
2023-02-06T14:36:23.482Z,1.23
2023-02-06T14:40:20.034Z,1.33
2023-02-06T14:44:02.022Z,1.08
2023-02-06T14:47:28.703Z,1.06
2023-02-06T14:51:02.508Z,1.10
2023-02-06T14:54:58.732Z,0.87
2023-02-06T14:58:30.366Z,0.68
2023-02-06T15:02:24.513Z,0.50
2023-02-06T15:06:30.309Z,0.10
2023-02-06T15:09:59.110Z,-0.24
2023-02-06T15:13:52.736Z,-0.43
2023-02-06T15:17:22.805Z,-0.70
2023-02-06T15:21:00.587Z,-0.93
2023-02-06T15:25:26.606Z,-1.10
2023-02-06T15:28:56.651Z,-1.20
2023-02-06T15:32:37.792Z,-1.30
2023-02-06T15:36:04.896Z,-1.48
2023-02-06T15:39:42.173Z,-1.67
2023-02-06T15:43:40.968Z,-1.82
2023-02-06T15:47:07.797Z,-2.03
2023-02-06T15:50:40.859Z,-2.44
2023-02-06T15:54:24.275Z,-2.84
2023-02-06T15:57:58.638Z,-3.21
2023-02-06T16:01:56.885Z,-3.46
2023-02-06T16:05:40.846Z,-3.82
2023-02-06T16:09:07.519Z,-4.24
2023-02-06T16:12:43.425Z,-4.50
2023-02-06T16:16:25.192Z,-4.61
2023-02-06T16:20:03.123Z,-4.66
2023-02-06T16:23:48.995Z,-4.88
2023-02-06T16:27:32.825Z,-5.05
2023-02-06T16:31:14.727Z,-5.23
2023-02-06T16:34:56.309Z,-5.38
2023-02-06T16:38:18.982Z,-5.41
2023-02-06T16:41:56.261Z,-5.56
2023-02-06T16:45:34.078Z,-5.75
2023-02-06T16:49:14.385Z,-5.94
2023-02-06T16:52:58.745Z,-6.18
2023-02-06T16:56:46.458Z,-6.31
2023-02-06T17:00:33.771Z,-6.43
2023-02-06T17:04:15.425Z,-6.40
2023-02-06T17:07:57.000Z,-6.35
2023-02-06T17:11:38.335Z,-6.53
2023-02-06T17:15:19.963Z,-6.63
2023-02-06T17:18:42.112Z,-6.72
2023-02-06T17:22:20.810Z,-6.68
2023-02-06T17:26:22.184Z,-6.79
2023-02-06T17:30:03.740Z,-7.00
2023-02-06T17:33:25.918Z,-7.18
2023-02-06T17:37:08.044Z,-7.20
2023-02-06T17:40:41.913Z,-7.30
2023-02-06T17:44:38.282Z,-7.47
2023-02-06T17:48:19.189Z,-7.47
2023-02-06T17:51:43.267Z,-7.46
2023-02-06T17:55:38.253Z,-7.61
2023-02-06T17:59:01.180Z,-7.69
2023-02-06T18:02:38.059Z,-7.83
2023-02-06T18:06:35.858Z,-7.83
2023-02-06T18:09:58.015Z,-7.97
2023-02-06T18:13:55.361Z,-8.13
2023-02-06T18:17:18.693Z,-8.21
2023-02-06T18:21:15.529Z,-8.29
2023-02-06T18:24:37.453Z,-8.37
2023-02-06T18:28:17.389Z,-8.43
2023-02-06T18:32:12.650Z,-8.52
2023-02-06T18:35:45.111Z,-8.53
2023-02-06T18:39:13.521Z,-8.53
2023-02-06T18:42:56.330Z,-8.44
2023-02-06T18:46:28.444Z,-8.24
2023-02-06T18:50:06.359Z,-8.26
2023-02-06T18:54:02.674Z,-8.47
2023-02-06T18:57:24.792Z,-8.67
2023-02-06T19:01:23.894Z,-8.72
2023-02-06T19:04:46.310Z,-8.73
2023-02-06T19:08:23.405Z,-8.59
2023-02-06T19:12:02.622Z,-8.52
2023-02-06T19:15:39.145Z,-8.57
2023-02-06T19:19:17.238Z,-8.71
2023-02-06T19:22:55.403Z,-8.81
2023-02-06T19:26:51.380Z,-8.90
2023-02-06T19:30:13.900Z,-9.12
2023-02-06T19:34:10.726Z,-9.24
2023-02-06T19:37:51.458Z,-9.32
2023-02-06T19:41:19.217Z,-9.52
2023-02-06T19:45:10.577Z,-9.66
2023-02-06T19:48:35.238Z,-9.79
2023-02-06T19:52:14.516Z,-9.79
2023-02-06T19:56:07.680Z,-9.80
2023-02-06T19:59:49.215Z,-9.80
2023-02-06T20:03:11.610Z,-9.82
2023-02-06T20:07:08.004Z,-9.94
2023-02-06T20:10:30.442Z,-10.01
2023-02-06T20:14:09.220Z,-10.06
2023-02-06T20:17:45.225Z,-10.15
2023-02-06T20:21:29.490Z,-10.19
2023-02-06T20:25:00.656Z,-10.15
2023-02-06T20:28:38.086Z,-10.11
2023-02-06T20:32:19.524Z,-9.99
2023-02-06T20:35:53.468Z,-10.00
2023-02-06T20:39:50.457Z,-10.15
2023-02-06T20:43:32.110Z,-10.18
2023-02-06T20:47:13.440Z,-10.16
2023-02-06T20:50:58.941Z,-10.31
2023-02-06T20:54:40.477Z,-10.41
2023-02-06T20:58:03.072Z,-10.37
2023-02-06T21:01:40.868Z,-10.36
2023-02-06T21:05:36.593Z,-10.38
2023-02-06T21:09:01.713Z,-10.63
2023-02-06T21:12:55.055Z,-10.80
2023-02-06T21:16:17.595Z,-10.83
2023-02-06T21:19:54.777Z,-10.86
2023-02-06T21:23:33.610Z,-10.97
2023-02-06T21:27:11.369Z,-10.95
2023-02-06T21:31:15.232Z,-11.04
2023-02-06T21:34:37.518Z,-11.06
2023-02-06T21:38:15.372Z,-11.13
2023-02-06T21:42:12.143Z,-11.20
2023-02-06T21:45:32.191Z,-11.20
2023-02-06T21:49:30.360Z,-11.20
2023-02-06T21:52:52.324Z,-11.17
2023-02-06T21:56:30.315Z,-11.20
2023-02-06T22:00:09.883Z,-11.22
2023-02-06T22:03:46.709Z,-11.11
2023-02-06T22:07:41.970Z,-10.93
2023-02-06T22:11:14.382Z,-10.86
2023-02-06T22:15:00.572Z,-10.94
2023-02-06T22:18:23.308Z,-10.95
2023-02-06T22:22:00.304Z,-10.87
2023-02-06T22:25:37.780Z,-10.78
2023-02-06T22:29:17.253Z,-10.70
2023-02-06T22:32:53.597Z,-10.84
2023-02-06T22:36:52.797Z,-10.97
2023-02-06T22:40:33.867Z,-11.04
2023-02-06T22:43:58.879Z,-11.30
2023-02-06T22:47:34.968Z,-11.33
2023-02-06T22:51:15.084Z,-11.27
2023-02-06T22:55:11.987Z,-11.18
2023-02-06T22:58:58.409Z,-11.23
2023-02-06T23:02:20.455Z,-11.16
2023-02-06T23:06:04.124Z,-11.11
2023-02-06T23:09:55.701Z,-11.19
2023-02-06T23:13:20.534Z,-11.28
2023-02-06T23:17:00.804Z,-11.28
2023-02-06T23:20:36.356Z,-11.23
2023-02-06T23:24:12.198Z,-11.42
2023-02-06T23:27:49.122Z,-11.47
2023-02-06T23:31:27.555Z,-11.44
2023-02-06T23:35:04.682Z,-11.49
2023-02-06T23:39:02.135Z,-11.48
2023-02-06T23:42:43.535Z,-11.63
2023-02-06T23:46:25.795Z,-11.77
2023-02-06T23:50:07.699Z,-11.73
2023-02-06T23:53:49.603Z,-11.60
2023-02-06T23:57:12.029Z,-11.60
